createdAt,value
2018-11-06T00:00:03.395Z,11.20
2018-11-06T00:05:11.729Z,11.10
2018-11-06T00:10:14.772Z,10.90
2018-11-06T00:15:17.836Z,10.80
2018-11-06T00:20:20.856Z,10.70
2018-11-06T00:25:24.024Z,10.60
2018-11-06T00:30:27.056Z,10.50
2018-11-06T00:35:30.198Z,10.40
2018-11-06T00:40:33.292Z,10.30
2018-11-06T00:45:36.337Z,10.30
2018-11-06T00:50:39.361Z,10.30
2018-11-06T00:55:42.402Z,10.30
2018-11-06T01:00:45.469Z,10.20
2018-11-06T01:05:48.516Z,10.10
2018-11-06T01:10:51.554Z,10.10
2018-11-06T01:15:54.645Z,10.00
2018-11-06T01:20:57.684Z,10.00
2018-11-06T01:26:00.721Z,9.90
2018-11-06T01:31:03.887Z,9.80
2018-11-06T01:36:06.960Z,9.80
2018-11-06T01:41:09.983Z,9.80
2018-11-06T01:46:13.124Z,9.70
2018-11-06T01:51:16.252Z,9.70
2018-11-06T01:56:19.313Z,9.70
2018-11-06T02:01:22.389Z,9.70
2018-11-06T02:06:25.423Z,9.60
2018-11-06T02:11:28.446Z,9.60
2018-11-06T02:16:31.592Z,9.60
2018-11-06T02:21:34.630Z,9.60
2018-11-06T02:26:37.858Z,9.70
2018-11-06T02:31:40.848Z,9.70
2018-11-06T02:36:43.877Z,9.70
2018-11-06T02:41:46.973Z,9.70
2018-11-06T02:46:49.984Z,9.70
2018-11-06T02:51:53.067Z,9.60
2018-11-06T02:56:56.093Z,9.60
2018-11-06T03:01:59.141Z,9.50
2018-11-06T03:07:02.201Z,9.50
2018-11-06T03:12:05.537Z,9.40
2018-11-06T03:17:08.648Z,9.50
2018-11-06T03:22:11.680Z,9.50
2018-11-06T03:27:14.758Z,9.50
2018-11-06T03:32:17.888Z,9.40
2018-11-06T03:37:20.899Z,9.40
2018-11-06T03:42:24.003Z,9.40
2018-11-06T03:47:27.033Z,9.30
2018-11-06T03:52:30.106Z,9.30
2018-11-06T03:57:33.164Z,9.30
2018-11-06T04:02:36.220Z,9.30
2018-11-06T04:07:39.280Z,9.20
2018-11-06T04:12:42.705Z,9.10
2018-11-06T04:17:45.712Z,9.10
2018-11-06T04:22:48.836Z,9.10
2018-11-06T04:27:51.868Z,9.10
2018-11-06T04:32:54.942Z,9.10
2018-11-06T04:37:57.958Z,9.00
2018-11-06T04:43:01.032Z,9.00
2018-11-06T04:48:04.164Z,9.00
2018-11-06T04:53:07.223Z,9.00
2018-11-06T04:58:10.289Z,9.00
2018-11-06T05:03:13.348Z,9.00
2018-11-06T05:08:16.532Z,9.00
2018-11-06T05:13:19.581Z,9.00
2018-11-06T05:18:22.640Z,9.00
2018-11-06T05:23:25.669Z,8.90
2018-11-06T05:28:28.855Z,8.90
2018-11-06T05:33:31.885Z,8.80
2018-11-06T05:38:34.920Z,8.80
2018-11-06T05:43:38.515Z,8.80
2018-11-06T05:48:41.625Z,8.80
2018-11-06T05:53:44.728Z,8.70
2018-11-06T05:58:47.776Z,8.70
2018-11-06T06:03:50.906Z,8.70
2018-11-06T06:08:53.928Z,8.70
2018-11-06T06:13:56.962Z,8.70
2018-11-06T06:18:59.980Z,8.70
2018-11-06T06:24:03.103Z,8.60
2018-11-06T06:29:06.512Z,8.60
2018-11-06T06:34:09.601Z,8.60
2018-11-06T06:39:12.930Z,8.60
2018-11-06T06:44:15.968Z,8.70
2018-11-06T06:49:19.119Z,8.70
2018-11-06T06:54:22.310Z,8.80
2018-11-06T06:59:25.238Z,8.90
2018-11-06T07:04:28.252Z,9.00
2018-11-06T07:09:31.340Z,9.10
2018-11-06T07:14:34.548Z,9.20
2018-11-06T07:19:37.578Z,9.30
2018-11-06T07:24:40.589Z,9.40
2018-11-06T07:29:43.620Z,9.50
2018-11-06T07:34:46.844Z,9.70
2018-11-06T07:39:49.742Z,9.80
2018-11-06T07:44:52.831Z,9.90
2018-11-06T07:49:55.932Z,10.10
2018-11-06T07:54:58.900Z,10.30
2018-11-06T08:00:01.950Z,10.50
2018-11-06T08:05:05.360Z,10.60
2018-11-06T08:10:09.511Z,10.80
2018-11-06T08:15:13.113Z,11.00
2018-11-06T08:20:16.120Z,11.20
2018-11-06T08:25:19.137Z,11.80
2018-11-06T08:30:22.268Z,11.90
2018-11-06T08:35:25.239Z,13.00
2018-11-06T08:40:28.287Z,14.30
2018-11-06T08:45:31.326Z,14.20
2018-11-06T08:50:34.384Z,13.80
2018-11-06T08:55:37.495Z,13.60
2018-11-06T09:00:40.524Z,13.50
2018-11-06T09:05:43.598Z,13.50
2018-11-06T09:10:46.674Z,13.60
2018-11-06T09:15:49.748Z,13.60
2018-11-06T09:20:52.770Z,13.80
2018-11-06T09:25:55.829Z,13.90
2018-11-06T09:30:58.951Z,14.00
2018-11-06T09:36:01.934Z,14.00
2018-11-06T09:41:05.219Z,14.10
2018-11-06T09:46:08.252Z,14.10
2018-11-06T09:51:11.332Z,14.20
2018-11-06T09:56:14.465Z,14.20
2018-11-06T10:01:17.556Z,14.30
2018-11-06T10:06:20.667Z,14.30
2018-11-06T10:11:23.663Z,14.40
2018-11-06T10:16:26.653Z,14.50
2018-11-06T10:21:29.740Z,14.60
2018-11-06T10:26:32.814Z,14.70
2018-11-06T10:31:36.760Z,14.80
2018-11-06T10:36:39.865Z,14.90
2018-11-06T10:41:43.195Z,15.00
2018-11-06T10:46:46.185Z,15.00
2018-11-06T10:51:49.398Z,15.10
2018-11-06T10:56:52.396Z,15.10
2018-11-06T11:02:00.932Z,15.20
2018-11-06T11:07:03.968Z,15.20
2018-11-06T11:12:07.046Z,15.30
2018-11-06T11:17:10.083Z,15.30
2018-11-06T11:22:13.153Z,15.30
2018-11-06T11:27:16.177Z,15.30
2018-11-06T11:32:19.257Z,15.40
2018-11-06T11:37:22.368Z,15.50
2018-11-06T11:42:25.379Z,15.50
2018-11-06T11:47:28.453Z,15.50
2018-11-06T11:52:31.488Z,15.50
2018-11-06T11:57:34.567Z,15.50
2018-11-06T12:02:37.656Z,15.60
2018-11-06T12:07:40.820Z,15.60
2018-11-06T12:12:43.850Z,15.70
2018-11-06T12:17:47.472Z,15.70
2018-11-06T12:22:50.548Z,15.80
2018-11-06T12:27:53.647Z,15.80
2018-11-06T12:32:56.759Z,15.80
2018-11-06T12:37:59.797Z,15.80
2018-11-06T12:43:02.841Z,15.80
2018-11-06T12:48:06.087Z,15.90
2018-11-06T12:53:09.102Z,15.90
2018-11-06T12:58:12.160Z,15.90
2018-11-06T13:03:15.280Z,15.90
2018-11-06T13:08:18.310Z,15.90
2018-11-06T13:13:21.381Z,15.90
2018-11-06T13:18:24.432Z,15.90
2018-11-06T13:23:27.493Z,15.90
2018-11-06T13:28:30.548Z,15.90
2018-11-06T13:33:33.808Z,15.90
2018-11-06T13:38:36.931Z,16.10
2018-11-06T13:43:40.075Z,16.30
2018-11-06T13:48:43.000Z,16.60
2018-11-06T13:53:46.064Z,16.40
2018-11-06T13:58:49.117Z,16.20
2018-11-06T14:03:52.159Z,16.00
2018-11-06T14:08:55.219Z,15.90
2018-11-06T14:13:58.269Z,15.80
2018-11-06T14:19:01.461Z,15.80
2018-11-06T14:24:04.569Z,15.70
2018-11-06T14:29:08.121Z,15.60
2018-11-06T14:34:11.164Z,15.60
2018-11-06T14:39:14.274Z,15.50
2018-11-06T14:44:17.336Z,15.40
2018-11-06T14:49:20.436Z,15.30
2018-11-06T14:54:23.420Z,15.20
2018-11-06T14:59:26.498Z,15.10
2018-11-06T15:04:29.591Z,15.00
2018-11-06T15:09:32.747Z,14.80
2018-11-06T15:14:35.840Z,14.70
2018-11-06T15:19:38.889Z,14.60
2018-11-06T15:24:41.982Z,14.40
2018-11-06T15:29:45.044Z,14.10
2018-11-06T15:34:48.116Z,14.00
2018-11-06T15:39:51.280Z,13.90
2018-11-06T15:44:54.303Z,13.80
2018-11-06T15:49:57.356Z,13.80
2018-11-06T15:55:00.453Z,13.60
2018-11-06T16:00:05.592Z,13.50
2018-11-06T16:05:08.773Z,13.50
2018-11-06T16:10:14.296Z,13.40
2018-11-06T16:15:17.390Z,13.20
2018-11-06T16:20:21.192Z,13.10
2018-11-06T16:25:24.226Z,12.90
2018-11-06T16:30:27.242Z,12.60
2018-11-06T16:35:30.292Z,12.50
2018-11-06T16:40:33.422Z,12.30
2018-11-06T16:45:36.441Z,12.30
2018-11-06T16:50:39.499Z,12.30
2018-11-06T16:55:42.539Z,12.40
2018-11-06T17:00:45.635Z,12.50
2018-11-06T17:05:48.689Z,12.80
2018-11-06T17:10:51.720Z,12.80
2018-11-06T17:15:54.739Z,12.70
2018-11-06T17:20:57.941Z,12.60
2018-11-06T17:26:01.048Z,12.40
2018-11-06T17:31:04.081Z,12.10
2018-11-06T17:36:07.304Z,12.00
2018-11-06T17:41:10.548Z,11.80
2018-11-06T17:46:13.625Z,11.70
2018-11-06T17:51:16.700Z,11.50
2018-11-06T17:56:19.739Z,11.30
2018-11-06T18:01:22.792Z,11.10
2018-11-06T18:06:26.013Z,11.00
2018-11-06T18:11:29.108Z,10.80
2018-11-06T18:16:32.191Z,10.70
2018-11-06T18:21:35.221Z,10.60
2018-11-06T18:26:38.429Z,10.50
2018-11-06T18:31:41.688Z,10.40
2018-11-06T18:36:44.801Z,10.40
2018-11-06T18:41:47.824Z,10.30
2018-11-06T18:46:50.890Z,10.30
2018-11-06T18:51:53.936Z,10.20
2018-11-06T18:56:56.972Z,10.20
2018-11-06T19:02:00.105Z,10.10
2018-11-06T19:07:03.184Z,10.00
2018-11-06T19:12:06.256Z,9.90
2018-11-06T19:17:09.306Z,9.80
2018-11-06T19:22:12.389Z,9.80
2018-11-06T19:27:15.441Z,9.70
2018-11-06T19:32:18.505Z,9.70
2018-11-06T19:37:21.584Z,9.60
2018-11-06T19:42:24.711Z,9.50
2018-11-06T19:47:27.883Z,9.50
2018-11-06T19:52:30.946Z,9.50
2018-11-06T19:57:33.997Z,9.50
2018-11-06T20:02:37.034Z,9.50
2018-11-06T20:07:41.253Z,9.50
2018-11-06T20:12:45.540Z,9.40
2018-11-06T20:17:48.587Z,9.40
2018-11-06T20:22:51.655Z,9.30
2018-11-06T20:27:54.765Z,9.30
2018-11-06T20:32:57.903Z,9.20
2018-11-06T20:38:01.029Z,9.20
2018-11-06T20:43:04.150Z,9.20
2018-11-06T20:48:07.228Z,9.20
2018-11-06T20:53:10.444Z,9.20
2018-11-06T20:58:13.388Z,9.10
2018-11-06T21:03:16.408Z,9.10
2018-11-06T21:08:19.481Z,9.00
2018-11-06T21:13:22.639Z,9.00
2018-11-06T21:18:25.724Z,9.10
2018-11-06T21:23:28.638Z,9.00
2018-11-06T21:28:31.709Z,9.10
2018-11-06T21:33:34.723Z,9.10
2018-11-06T21:38:37.840Z,9.20
2018-11-06T21:43:40.955Z,9.30
2018-11-06T21:48:43.985Z,9.50
2018-11-06T21:53:47.069Z,9.50
2018-11-06T21:58:50.205Z,9.60
2018-11-06T22:03:53.192Z,9.80
2018-11-06T22:08:56.234Z,9.90
2018-11-06T22:13:59.269Z,10.00
2018-11-06T22:19:02.438Z,10.10
2018-11-06T22:24:05.520Z,10.00
2018-11-06T22:29:08.760Z,10.00
2018-11-06T22:34:12.269Z,10.10
2018-11-06T22:39:15.344Z,10.00
2018-11-06T22:44:18.372Z,9.90
2018-11-06T22:49:21.487Z,9.80
2018-11-06T22:54:24.524Z,9.80
2018-11-06T22:59:27.592Z,9.70
2018-11-06T23:04:30.827Z,9.60
2018-11-06T23:09:33.893Z,9.50
2018-11-06T23:14:37.035Z,9.50
2018-11-06T23:19:40.954Z,9.40
2018-11-06T23:24:44.271Z,9.40
2018-11-06T23:29:47.330Z,9.40
2018-11-06T23:34:50.424Z,9.40
2018-11-06T23:39:53.517Z,9.40
2018-11-06T23:44:56.534Z,9.30
2018-11-06T23:49:59.840Z,9.30
2018-11-06T23:55:02.947Z,9.20
